Time;durP1;ratioP1;P1;durP2;ratioP2;P2;SDS_P1;SDS_P2;PMS_P1;PMS_P2;Temp;Humidity;BMP_temperature;BMP_pressure;BME280_temperature;BME280_humidity;BME280_pressure;Samples;Min_cycle;Max_cycle;Signal;HPM_P1;HPM_P2
2023/03/21 00:00:47;;;;;;;21.75;13.43;;;;;;;;;;4864940;29;20061;-86
2023/03/21 00:03:13;;;;;;;26.48;13.65;;;;;;;;;;4865079;29;20045;-87
2023/03/21 00:05:48;;;;;;;22.83;13.63;;;;;;;;;;4864106;29;20510;-88
2023/03/21 00:08:15;;;;;;;29.88;15.25;;;;;;;;;;4864848;29;20183;-86
2023/03/21 00:10:41;;;;;;;22.90;12.60;;;;;;;;;;4849825;29;20124;-89
2023/03/21 00:13:07;;;;;;;23.83;13.95;;;;;;;;;;4864852;29;20490;-87
2023/03/21 00:15:37;;;;;;;30.42;12.55;;;;;;;;;;4834503;29;20436;-86
2023/03/21 00:18:10;;;;;;;30.10;12.23;;;;;;;;;;4864495;29;20064;-87
2023/03/21 00:20:36;;;;;;;24.17;12.07;;;;;;;;;;4850058;29;20507;-89
2023/03/21 00:23:03;;;;;;;25.63;13.13;;;;;;;;;;4864253;29;20045;-86
2023/03/21 00:25:31;;;;;;;24.85;12.50;;;;;;;;;;4848560;29;20506;-89
2023/03/21 00:27:58;;;;;;;35.38;13.30;;;;;;;;;;4864911;29;20053;-87
2023/03/21 00:30:24;;;;;;;34.63;14.30;;;;;;;;;;4864630;29;20411;-87
2023/03/21 00:32:50;;;;;;;39.05;16.30;;;;;;;;;;4864816;29;20041;-87
2023/03/21 00:35:16;;;;;;;47.50;16.40;;;;;;;;;;4880995;29;20053;-86
2023/03/21 00:37:42;;;;;;;43.75;17.42;;;;;;;;;;4864208;29;20490;-89
2023/03/21 00:40:09;;;;;;;44.05;16.35;;;;;;;;;;4864045;29;20088;-86
2023/03/21 00:42:35;;;;;;;39.85;15.90;;;;;;;;;;4834248;29;20057;-89
2023/03/21 00:45:02;;;;;;;42.97;17.52;;;;;;;;;;4880556;29;20502;-89
2023/03/21 00:47:28;;;;;;;41.42;16.70;;;;;;;;;;4864271;29;20056;-91
2023/03/21 00:49:54;;;;;;;50.70;18.02;;;;;;;;;;4849345;29;20057;-89
2023/03/21 00:52:21;;;;;;;46.72;17.88;;;;;;;;;;4880725;29;20387;-90
2023/03/21 00:54:47;;;;;;;70.68;20.05;;;;;;;;;;4864356;29;20060;-88
2023/03/21 00:57:13;;;;;;;58.28;17.95;;;;;;;;;;4880360;29;20565;-90
2023/03/21 00:59:39;;;;;;;74.65;21.17;;;;;;;;;;4863984;29;20113;-85
2023/03/21 01:02:06;;;;;;;81.50;20.42;;;;;;;;;;4881248;29;20041;-86
2023/03/21 01:04:33;;;;;;;83.18;22.08;;;;;;;;;;4848214;29;20048;-87
2023/03/21 01:06:59;;;;;;;75.15;20.42;;;;;;;;;;4833382;29;20052;-85
2023/03/21 01:09:25;;;;;;;68.57;23.10;;;;;;;;;;4879772;29;20056;-85
2023/03/21 01:11:52;;;;;;;70.35;20.95;;;;;;;;;;4863323;29;20052;-86
2023/03/21 01:14:20;;;;;;;55.33;18.77;;;;;;;;;;4848851;29;20047;-86
2023/03/21 01:16:46;;;;;;;44.50;16.88;;;;;;;;;;4848588;29;20403;-86
2023/03/21 01:19:13;;;;;;;54.65;18.85;;;;;;;;;;4863310;29;20110;-88
2023/03/21 01:21:39;;;;;;;56.70;19.65;;;;;;;;;;4880024;29;20041;-89
2023/03/21 01:24:06;;;;;;;50.78;18.45;;;;;;;;;;4863301;29;20045;-89
2023/03/21 01:26:32;;;;;;;42.83;17.60;;;;;;;;;;4863290;29;20065;-87
2023/03/21 01:28:59;;;;;;;50.10;16.75;;;;;;;;;;4863286;29;20045;-89
2023/03/21 01:31:25;;;;;;;40.63;13.70;;;;;;;;;;4880221;29;20093;-90
2023/03/21 01:33:51;;;;;;;32.85;13.43;;;;;;;;;;4880110;29;20080;-86
2023/03/21 01:36:21;;;;;;;35.83;13.50;;;;;;;;;;4848084;29;20045;-90
2023/03/21 01:38:47;;;;;;;27.13;12.13;;;;;;;;;;4879976;29;20055;-89
2023/03/21 01:41:29;;;;;;;30.38;12.05;;;;;;;;;;4863567;29;20117;-86
2023/03/21 01:43:56;;;;;;;33.45;14.18;;;;;;;;;;4863444;29;20502;-86
2023/03/21 01:46:22;;;;;;;25.20;12.15;;;;;;;;;;4880018;29;20388;-89
2023/03/21 01:48:51;;;;;;;34.67;14.68;;;;;;;;;;4847868;29;20045;-90
2023/03/21 01:51:17;;;;;;;35.88;16.17;;;;;;;;;;4847308;29;20060;-85
2023/03/21 01:53:44;;;;;;;45.90;17.10;;;;;;;;;;4847633;29;20491;-89
2023/03/21 01:56:10;;;;;;;42.42;15.90;;;;;;;;;;4879595;29;20191;-85
2023/03/21 01:58:37;;;;;;;40.42;17.20;;;;;;;;;;4848549;29;20059;-87
2023/03/21 02:01:03;;;;;;;46.72;17.83;;;;;;;;;;4863196;29;20049;-86
2023/03/21 02:03:36;;;;;;;48.10;17.08;;;;;;;;;;4863310;29;20044;-90
2023/03/21 02:06:09;;;;;;;45.10;18.45;;;;;;;;;;4847863;29;20045;-87
2023/03/21 02:08:36;;;;;;;33.80;16.03;;;;;;;;;;4847829;29;20049;-87
2023/03/21 02:11:02;;;;;;;42.85;17.42;;;;;;;;;;4879561;29;20091;-87
2023/03/21 02:13:28;;;;;;;39.22;17.17;;;;;;;;;;4847979;29;20037;-86
2023/03/21 02:15:55;;;;;;;37.22;15.35;;;;;;;;;;4862634;29;20594;-87
2023/03/21 02:18:21;;;;;;;30.42;15.05;;;;;;;;;;4862556;29;20140;-86
2023/03/21 02:21:05;;;;;;;31.58;13.80;;;;;;;;;;4879470;29;20084;-86
2023/03/21 02:23:35;;;;;;;36.17;16.10;;;;;;;;;;4879525;29;20068;-87
2023/03/21 02:26:29;;;;;;;29.63;15.25;;;9.10;99.90;;;;;;4847319;29;20059;-87
2023/03/21 02:29:02;;;;;;;26.77;14.63;;;;;;;;;;4847984;29;20113;-87
2023/03/21 02:31:35;;;;;;;29.35;15.35;;;;;;;;;;4851118;29;20052;-88
2023/03/21 02:34:08;;;;;;;27.30;13.05;;;;;;;;;;4866821;29;20105;-87
2023/03/21 02:37:25;;;;;;;28.20;12.77;;;9.10;99.90;;;;;;4866670;29;20059;-88
2023/03/21 02:40:10;;;;;;;26.60;12.60;;;;;;;;;;4816721;29;20529;-87
2023/03/21 02:42:54;;;;;;;22.25;12.80;;;;;;;;;;4851222;29;20197;-87
2023/03/21 02:45:23;;;;;;;24.17;12.75;;;;;;;;;;4866077;29;20041;-87
2023/03/21 02:47:59;;;;;;;24.45;11.57;;;;;;;;;;4865891;29;20181;-86
2023/03/21 02:50:32;;;;;;;26.50;13.45;;;;;;;;;;4866337;29;20125;-87
2023/03/21 02:52:59;;;;;;;20.90;11.82;;;;;;;;;;4882614;29;20056;-88
2023/03/21 02:55:26;;;;;;;20.42;11.82;;;;;;;;;;4865607;29;20045;-87
2023/03/21 02:57:54;;;;;;;19.98;12.55;;;;;;;;;;4866493;29;20097;-87
2023/03/21 03:00:23;;;;;;;22.17;12.40;;;;;;;;;;4850853;29;20049;-87
2023/03/21 03:02:49;;;;;;;23.48;12.55;;;;;;;;;;4883250;29;20045;-87
2023/03/21 03:05:16;;;;;;;16.15;11.50;;;;;;;;;;4866390;29;20406;-88
2023/03/21 03:08:21;;;;;;;17.63;11.18;;;9.10;99.90;;;;;;4866093;29;20454;-87
2023/03/21 03:11:08;;;;;;;19.08;11.88;;;;;;;;;;4849833;29;20060;-88
2023/03/21 03:13:38;;;;;;;18.88;11.55;;;;;;;;;;4866031;29;20045;-87
2023/03/21 03:16:42;;;;;;;20.35;11.43;;;;;;;;;;4881891;29;20498;-87
2023/03/21 03:19:10;;;;;;;20.63;11.43;;;;;;;;;;4788727;29;20055;-87
2023/03/21 03:21:49;;;;;;;25.20;12.48;;;;;;;;;;4788339;29;20440;-87
2023/03/21 03:24:19;;;;;;;19.42;12.10;;;;;;;;;;4826042;29;20064;-87
2023/03/21 03:26:51;;;;;;;21.35;12.68;;;;;;;;;;4881603;29;20503;-88
2023/03/21 03:29:17;;;;;;;26.00;13.68;;;;;;;;;;4865585;29;20494;-87
2023/03/21 03:31:51;;;;;;;20.25;12.38;;;;;;;;;;4849908;29;20049;-87
2023/03/21 03:34:19;;;;;;;22.13;13.90;;;;;;;;;;4849606;29;20048;-86
2023/03/21 03:36:50;;;;;;;21.90;12.55;;;;;;;;;;4864887;29;20826;-87
2023/03/21 03:39:17;;;;;;;26.25;14.25;;;;;;;;;;4864588;29;20068;-87
2023/03/21 03:41:45;;;;;;;24.13;13.82;;;;;;;;;;4848401;29;20064;-87
2023/03/21 03:44:11;;;;;;;20.90;12.43;;;;;;;;;;4881657;29;20141;-88
2023/03/21 03:47:07;;;;;;;23.90;13.43;;;;;;;;;;4865414;29;20088;-87
2023/03/21 03:49:36;;;;;;;23.83;13.40;;;;;;;;;;4862196;29;20053;-87
2023/03/21 03:52:03;;;;;;;23.15;13.23;;;;;;;;;;4849632;29;20088;-87
2023/03/21 03:54:35;;;;;;;24.45;13.73;;;;;;;;;;4849364;29;20053;-87
2023/03/21 03:57:03;;;;;;;29.20;14.55;;;;;;;;;;4864857;29;20052;-88
2023/03/21 03:59:29;;;;;;;22.50;11.93;;;;;;;;;;4881488;29;20555;-87
2023/03/21 04:01:55;;;;;;;24.23;12.25;;;;;;;;;;4864611;29;20048;-86
2023/03/21 04:04:21;;;;;;;25.20;12.95;;;;;;;;;;4881522;29;20463;-87
2023/03/21 04:06:50;;;;;;;24.67;12.85;;;;;;;;;;4881436;29;20045;-87
2023/03/21 04:09:17;;;;;;;31.15;14.35;;;;;;;;;;4881274;29;20060;-87
2023/03/21 04:11:44;;;;;;;28.33;14.57;;;;;;;;;;4880809;29;20498;-87
2023/03/21 04:14:10;;;;;;;23.27;13.77;;;;;;;;;;4864591;29;20053;-87
2023/03/21 04:16:36;;;;;;;25.85;13.98;;;;;;;;;;4864314;29;20382;-87
2023/03/21 04:19:02;;;;;;;24.98;13.15;;;;;;;;;;4864467;29;20091;-86
2023/03/21 04:21:28;;;;;;;28.23;12.65;;;;;;;;;;4864612;29;20402;-87
2023/03/21 04:23:54;;;;;;;28.67;13.57;;;;;;;;;;4863954;29;20085;-86
2023/03/21 04:26:21;;;;;;;26.35;14.13;;;;;;;;;;4848595;29;20056;-86
2023/03/21 04:28:48;;;;;;;25.50;13.02;;;;;;;;;;4863955;29;20541;-86
2023/03/21 04:31:16;;;;;;;24.85;11.30;;;;;;;;;;4864712;29;20080;-86
2023/03/21 04:33:42;;;;;;;24.95;12.77;;;;;;;;;;4863821;29;20056;-87
2023/03/21 04:36:08;;;;;;;27.95;12.60;;;;;;;;;;4863863;29;20053;-87
2023/03/21 04:38:35;;;;;;;26.63;13.40;;;;;;;;;;4848496;29;20057;-87
2023/03/21 04:41:01;;;;;;;23.10;11.43;;;;;;;;;;4880857;29;20056;-87
2023/03/21 04:43:29;;;;;;;26.25;12.02;;;;;;;;;;4880588;29;20049;-87
2023/03/21 04:45:55;;;;;;;22.40;11.85;;;;;;;;;;4880489;29;20075;-88
2023/03/21 04:48:23;;;;;;;17.65;10.20;;;;;;;;;;4848622;29;20105;-87
2023/03/21 04:50:50;;;;;;;24.83;11.50;;;;;;;;;;4880592;29;20053;-86
2023/03/21 04:53:16;;;;;;;22.27;11.02;;;;;;;;;;4848276;29;20096;-88
2023/03/21 04:55:42;;;;;;;25.30;11.90;;;;;;;;;;4848361;29;20055;-87
2023/03/21 04:58:08;;;;;;;20.33;11.40;;;;;;;;;;4863874;29;20132;-87
2023/03/21 05:00:37;;;;;;;27.77;12.07;;;;;;;;;;4863692;29;20057;-86
2023/03/21 05:03:07;;;;;;;21.95;10.93;;;;;;;;;;4833607;29;20045;-87
2023/03/21 05:05:34;;;;;;;21.95;12.27;;;;;;;;;;4864197;29;20041;-87
2023/03/21 05:08:01;;;;;;;22.58;11.73;;;;;;;;;;4863542;29;20495;-86
2023/03/21 05:10:27;;;;;;;19.20;10.68;;;;;;;;;;4833108;29;20064;-86
2023/03/21 05:12:53;;;;;;;24.10;11.02;;;;;;;;;;4848035;29;20100;-86
2023/03/21 05:15:22;;;;;;;21.50;11.25;;;;;;;;;;4847984;29;20056;-87
2023/03/21 05:17:51;;;;;;;22.38;12.43;;;;;;;;;;4863789;29;20053;-86
2023/03/21 05:20:17;;;;;;;23.25;11.70;;;;;;;;;;4863318;29;20044;-85
2023/03/21 05:22:45;;;;;;;20.80;10.95;;;;;;;;;;4847941;29;20057;-87
2023/03/21 05:25:12;;;;;;;25.15;11.88;;;;;;;;;;4833291;29;20052;-86
2023/03/21 05:27:44;;;;;;;22.92;11.65;;;;;;;;;;4863490;29;20041;-87
2023/03/21 05:30:17;;;;;;;19.95;9.93;;;;;;;;;;4863928;29;20494;-86
2023/03/21 05:32:43;;;;;;;23.52;10.80;;;;;;;;;;4880316;29;20123;-88
2023/03/21 05:35:10;;;;;;;21.85;11.27;;;;;;;;;;4848417;29;20380;-90
2023/03/21 05:37:37;;;;;;;17.77;9.93;;;;;;;;;;4880408;29;20057;-88
2023/03/21 05:40:05;;;;;;;22.80;11.98;;;;;;;;;;4847926;29;20420;-87
2023/03/21 05:42:31;;;;;;;25.00;11.23;;;;;;;;;;4848264;29;20475;-87
2023/03/21 05:44:57;;;;;;;23.30;11.63;;;;;;;;;;4864115;29;20072;-89
2023/03/21 05:47:24;;;;;;;22.13;12.10;;;;;;;;;;4849338;29;20049;-87
2023/03/21 05:49:50;;;;;;;23.35;12.80;;;;;;;;;;4881336;29;20515;-89
2023/03/21 05:52:16;;;;;;;22.10;13.00;;;;;;;;;;4864308;29;20045;-87
2023/03/21 05:54:42;;;;;;;23.27;12.75;;;;;;;;;;4864472;29;20052;-88
2023/03/21 05:57:09;;;;;;;20.20;12.52;;;;;;;;;;4849080;29;20049;-90
2023/03/21 05:59:35;;;;;;;17.98;11.52;;;;;;;;;;4881014;29;20045;-88
2023/03/21 06:02:02;;;;;;;25.67;13.73;;;;;;;;;;4881054;29;20069;-87
2023/03/21 06:04:28;;;;;;;24.83;12.55;;;;;;;;;;4865676;29;20048;-88
2023/03/21 06:06:54;;;;;;;20.77;11.82;;;;;;;;;;4884776;29;20053;-88
2023/03/21 06:09:24;;;;;;;19.48;11.73;;;;;;;;;;4868189;29;20059;-89
2023/03/21 06:11:52;;;;;;;20.40;11.63;;;;;;;;;;4868858;29;20080;-88
2023/03/21 06:14:19;;;;;;;20.70;10.70;;;;;;;;;;4886100;29;20052;-89
2023/03/21 06:16:45;;;;;;;22.30;11.60;;;;;;;;;;4853736;29;20037;-90
2023/03/21 06:19:11;;;;;;;23.85;10.93;;;;;;;;;;4869250;29;20413;-88
2023/03/21 06:21:38;;;;;;;21.00;10.48;;;;;;;;;;4868877;29;20562;-91
2023/03/21 06:24:05;;;;;;;20.45;11.57;;;;;;;;;;4869601;29;20112;-90
2023/03/21 06:26:31;;;;;;;15.13;9.93;;;;;;;;;;4885978;29;20067;-88
2023/03/21 06:28:57;;;;;;;19.40;10.75;;;;;;;;;;4886356;29;20045;-88
2023/03/21 06:31:25;;;;;;;15.75;9.52;;;;;;;;;;4853908;29;20475;-90
2023/03/21 06:33:51;;;;;;;17.42;10.57;;;;;;;;;;4853874;29;20451;-90
2023/03/21 06:36:17;;;;;;;19.65;10.88;;;;;;;;;;4852640;29;20049;-88
2023/03/21 06:38:43;;;;;;;17.48;10.35;;;;;;;;;;4883435;29;20064;-86
2023/03/21 06:41:10;;;;;;;22.58;11.32;;;;;;;;;;4850880;29;20086;-86
2023/03/21 06:43:36;;;;;;;17.30;10.40;;;;;;;;;;4835961;29;20056;-86
2023/03/21 06:46:02;;;;;;;16.42;9.57;;;;;;;;;;4850877;29;20045;-87
2023/03/21 06:48:28;;;;;;;18.77;9.52;;;;;;;;;;4866807;29;20049;-85
2023/03/21 06:50:55;;;;;;;16.60;10.25;;;;;;;;;;4851156;29;20045;-86
2023/03/21 06:53:28;;;;;;;15.15;9.43;;;;;;;;;;4851197;29;20045;-86
2023/03/21 06:55:55;;;;;;;18.25;9.80;;;;;;;;;;4850941;29;20044;-87
2023/03/21 06:58:21;;;;;;;15.65;10.05;;;;;;;;;;4850917;29;20045;-88
2023/03/21 07:00:48;;;;;;;18.58;10.02;;;;;;;;;;4850839;29;20081;-87
2023/03/21 07:03:14;;;;;;;13.63;8.85;;;;;;;;;;4851361;29;20053;-89
2023/03/21 07:05:40;;;;;;;18.90;10.48;;;;;;;;;;4866451;29;20056;-87
2023/03/21 07:08:11;;;;;;;16.65;10.73;;;;;;;;;;4835413;29;20089;-87
2023/03/21 07:10:41;;;;;;;17.10;10.50;;;;;;;;;;4851196;29;20075;-88
2023/03/21 07:13:07;;;;;;;15.23;9.13;;;;;;;;;;4866354;29;20179;-87
2023/03/21 07:15:36;;;;;;;14.70;9.18;;;;;;;;;;4865909;29;20052;-87
2023/03/21 07:18:03;;;;;;;13.50;8.05;;;;;;;;;;4865938;29;20049;-87
2023/03/21 07:20:29;;;;;;;14.48;8.75;;;;;;;;;;4835207;29;20044;-87
2023/03/21 07:22:56;;;;;;;16.70;9.80;;;;;;;;;;4850796;29;20570;-87
2023/03/21 07:25:22;;;;;;;16.73;9.18;;;;;;;;;;4866272;29;20410;-88
2023/03/21 07:27:51;;;;;;;17.05;9.35;;;;;;;;;;4835489;29;20052;-88
2023/03/21 07:30:17;;;;;;;13.23;8.02;;;;;;;;;;4850952;29;20052;-88
2023/03/21 07:32:44;;;;;;;13.93;8.07;;;;;;;;;;4851104;29;20478;-87
2023/03/21 07:35:11;;;;;;;11.30;7.63;;;;;;;;;;4882576;29;20049;-90
2023/03/21 07:37:38;;;;;;;13.20;8.73;;;;;;;;;;4865831;29;20056;-88
2023/03/21 07:40:11;;;;;;;13.32;8.63;;;;;;;;;;4865879;29;20056;-89
2023/03/21 07:42:37;;;;;;;12.10;8.63;;;;;;;;;;4866843;29;20045;-87
2023/03/21 07:45:04;;;;;;;11.45;7.60;;;;;;;;;;4882584;29;20049;-86
2023/03/21 07:47:30;;;;;;;13.35;8.43;;;;;;;;;;4882640;29;20048;-88
2023/03/21 07:49:56;;;;;;;13.38;7.22;;;;;;;;;;4882088;29;20499;-88
2023/03/21 07:52:22;;;;;;;9.23;6.70;;;;;;;;;;4835144;29;20045;-87
2023/03/21 07:54:51;;;;;;;9.80;6.00;;;;;;;;;;4834857;29;20566;-86
2023/03/21 07:57:17;;;;;;;10.65;6.85;;;;;;;;;;4866004;29;20103;-88
2023/03/21 07:59:43;;;;;;;11.82;7.00;;;;;;;;;;4849891;29;20135;-87
2023/03/21 08:02:12;;;;;;;11.38;7.57;;;;;;;;;;4865429;29;20057;-88
2023/03/21 08:04:39;;;;;;;14.10;5.95;;;;;;;;;;4850090;29;20102;-87
2023/03/21 08:07:05;;;;;;;11.38;6.45;;;;;;;;;;4835077;29;20052;-87
2023/03/21 08:09:32;;;;;;;8.93;6.35;;;;;;;;;;4849478;29;20041;-87
2023/03/21 08:11:58;;;;;;;8.88;6.00;;;;;;;;;;4834234;29;20418;-87
2023/03/21 08:14:24;;;;;;;8.55;6.30;;;;;;;;;;4849753;29;20049;-87
2023/03/21 08:16:50;;;;;;;8.27;6.07;;;;;;;;;;4849224;29;20048;-86
2023/03/21 08:19:19;;;;;;;8.23;6.18;;;;;;;;;;4834150;29;20049;-86
2023/03/21 08:21:45;;;;;;;9.18;6.10;;;;;;;;;;4834697;29;20053;-87
2023/03/21 08:24:11;;;;;;;7.20;5.53;;;;;;;;;;4864665;29;20073;-86
2023/03/21 08:26:37;;;;;;;9.70;6.40;;;;;;;;;;4833969;29;20056;-86
2023/03/21 08:29:04;;;;;;;9.55;6.20;;;;;;;;;;4849195;29;20047;-89
2023/03/21 08:31:30;;;;;;;9.00;6.18;;;;;;;;;;4849208;29;20512;-90
2023/03/21 08:33:56;;;;;;;8.20;6.25;;;;;;;;;;4834849;29;20053;-87
2023/03/21 08:36:22;;;;;;;10.13;6.32;;;9.80;99.90;;;;;;4834242;29;20037;-86
2023/03/21 08:38:53;;;;;;;9.05;7.53;;;;;;;;;;4864241;29;20068;-86
2023/03/21 08:41:20;;;;;;;7.95;6.38;;;;;;;;;;4864714;29;20105;-86
2023/03/21 08:43:47;;;;;;;8.38;6.68;;;;;;;;;;4864707;29;20561;-87
2023/03/21 08:46:14;;;;;;;9.38;6.68;;;;;;;;;;4848588;29;20498;-86
2023/03/21 08:48:40;;;;;;;8.93;6.28;;;;;;;;;;4848949;29;20049;-87
2023/03/21 08:51:06;;;;;;;7.72;6.25;;;;;;;;;;4864475;29;20057;-87
2023/03/21 08:53:32;;;;;;;9.63;6.93;;;;;;;;;;4849712;29;20056;-87
2023/03/21 08:55:59;;;;;;;9.30;7.28;;;;;;;;;;4834678;29;20431;-86
2023/03/21 08:58:25;;;;;;;11.70;7.63;;;;;;;;;;4833791;29;20045;-87
2023/03/21 09:00:51;;;;;;;12.25;8.00;;;;;;;;;;4864032;29;20108;-87
2023/03/21 09:03:18;;;;;;;10.77;8.02;;;;;;;;;;4864040;29;20557;-90
2023/03/21 09:05:45;;;;;;;11.77;8.63;;;;;;;;;;4849079;29;20478;-89
2023/03/21 09:08:14;;;;;;;12.70;8.43;;;;;;;;;;4864818;29;20123;-88
2023/03/21 09:10:40;;;;;;;13.90;8.23;;;;;;;;;;4834008;29;20116;-86
2023/03/21 09:13:06;;;;;;;15.68;8.20;;;;;;;;;;4880172;29;20049;-86
2023/03/21 09:15:34;;;;;;;17.63;8.90;;;;;;;;;;4880805;29;20490;-88
2023/03/21 09:18:11;;;;;;;15.07;8.20;;;;;;;;;;4849205;29;20100;-90
2023/03/21 09:20:38;;;;;;;14.32;9.02;;;;;;;;;;4849943;29;20105;-87
2023/03/21 09:23:04;;;;;;;14.82;10.55;;;;;;;;;;4848223;29;20037;-90
2023/03/21 09:25:31;;;;;;;18.30;11.52;;;;;;;;;;4833382;29;20087;-88
2023/03/21 09:27:58;;;;;;;19.25;12.00;;;;;;;;;;4864315;29;20425;-87
2023/03/21 09:30:24;;;;;;;15.77;10.52;;;;;;;;;;4880088;29;20057;-87
2023/03/21 09:32:52;;;;;;;19.23;12.10;;;;;;;;;;4880381;29;20053;-91
2023/03/21 09:35:19;;;;;;;15.48;11.02;;;;;;;;;;4880172;29;20064;-87
2023/03/21 09:37:47;;;;;;;17.02;12.35;;;;;;;;;;4848152;29;20566;-87
2023/03/21 09:40:19;;;;;;;16.83;11.80;;;;;;;;;;4847418;29;20085;-90
2023/03/21 09:42:57;;;;;;;20.88;11.85;;;9.80;99.90;;;;;;4848202;29;20109;-87
2023/03/21 09:46:01;;;;;;;20.75;12.75;;;9.80;99.90;;;;;;4863866;29;20084;-87
2023/03/21 09:48:40;;;;;;;17.00;12.70;;;;;;;;;;4847964;29;20048;-86
2023/03/21 09:51:09;;;;;;;23.77;12.63;;;;;;;;;;4847798;29;20406;-87
2023/03/21 09:53:37;;;;;;;19.00;12.07;;;;;;;;;;4847568;29;20049;-87
2023/03/21 09:56:04;;;;;;;18.05;13.82;;;;;;;;;;4847719;29;20056;-87
2023/03/21 09:58:30;;;;;;;18.95;14.00;;;;;;;;;;4832725;29;20037;-87
2023/03/21 10:01:07;;;;;;;21.42;13.05;;;;;;;;;;4847555;29;20109;-87
2023/03/21 10:03:34;;;;;;;18.30;14.38;;;;;;;;;;4863032;29;20498;-88
2023/03/21 10:06:02;;;;;;;19.25;13.25;;;;;;;;;;4832637;29;20045;-88
2023/03/21 10:08:35;;;;;;;19.38;14.20;;;;;;;;;;4847705;29;20077;-88
2023/03/21 10:11:43;;;;;;;24.05;15.80;;;9.80;99.90;;;;;;4847328;29;20502;-87
2023/03/21 10:14:21;;;;;;;23.73;14.68;;;;;;;;;;4771357;30;20428;-86
2023/03/21 10:16:48;;;;;;;20.15;12.13;;;;;;;;;;4786601;29;20051;-87
2023/03/21 10:19:16;;;;;;;17.77;11.23;;;;;;;;;;4832682;29;20085;-87
2023/03/21 10:21:44;;;;;;;17.60;12.80;;;;;;;;;;4847640;29;20053;-87
2023/03/21 10:24:12;;;;;;;22.15;13.40;;;;;;;;;;4863187;29;20063;-87
2023/03/21 10:26:38;;;;;;;21.73;12.98;;;;;;;;;;4863359;29;20088;-86
2023/03/21 10:29:04;;;;;;;20.85;12.68;;;;;;;;;;4880084;29;20041;-87
2023/03/21 10:31:31;;;;;;;21.50;13.05;;;;;;;;;;4863505;29;20108;-86
2023/03/21 10:33:59;;;;;;;23.60;12.48;;;;;;;;;;4834041;29;20410;-87
2023/03/21 10:36:26;;;;;;;26.38;12.25;;;;;;;;;;4865997;29;20056;-87
2023/03/21 10:38:57;;;;;;;23.83;12.30;;;;;;;;;;4867966;29;20057;-88
2023/03/21 10:41:23;;;;;;;22.20;12.70;;;;;;;;;;4866198;29;20049;-86
2023/03/21 10:44:16;;;;;;;20.33;10.75;;;9.90;99.90;;;;;;4864336;29;20045;-87
2023/03/21 10:46:52;;;;;;;14.88;10.82;;;;;;;;;;4865505;29;20060;-88
2023/03/21 10:49:20;;;;;;;19.92;11.40;;;;;;;;;;4849668;29;20052;-89
2023/03/21 10:51:47;;;;;;;19.58;12.63;;;;;;;;;;4868496;29;20567;-87
2023/03/21 10:54:15;;;;;;;15.45;10.93;;;;;;;;;;4868537;29;20181;-90
2023/03/21 10:56:53;;;;;;;21.85;11.82;;;;;;;;;;4869529;29;20057;-91
2023/03/21 10:59:23;;;;;;;23.40;13.63;;;;;;;;;;4868387;29;20128;-89
2023/03/21 11:01:51;;;;;;;18.65;10.23;;;;;;;;;;4853603;29;20232;-89
2023/03/21 11:04:22;;;;;;;16.30;10.85;;;;;;;;;;4852770;29;20052;-91
2023/03/21 11:06:53;;;;;;;18.08;10.88;;;;;;;;;;4885493;29;20498;-91
2023/03/21 11:09:24;;;;;;;21.38;10.68;;;;;;;;;;4854032;29;20053;-91
2023/03/21 11:12:10;;;;;;;19.52;10.50;;;;;;;;;;4853678;29;20091;-88
2023/03/21 11:14:37;;;;;;;15.43;9.73;;;;;;;;;;4851985;29;20049;-88
2023/03/21 11:17:26;;;;;;;14.18;9.88;;;;;;;;;;4851955;29;20045;-88
2023/03/21 11:19:59;;;;;;;15.80;9.52;;;;;;;;;;4860271;29;20061;-89
2023/03/21 11:22:29;;;;;;;18.58;9.88;;;;;;;;;;4869048;29;20052;-91
2023/03/21 11:25:00;;;;;;;16.40;9.63;;;;;;;;;;4853153;29;20534;-92
2023/03/21 11:27:29;;;;;;;13.82;9.85;;;;;;;;;;4868676;29;20100;-91
2023/03/21 11:29:57;;;;;;;14.88;10.02;;;;;;;;;;4853465;29;20201;-90
2023/03/21 11:32:25;;;;;;;21.95;9.85;;;;;;;;;;4853469;29;20045;-89
2023/03/21 11:34:54;;;;;;;19.40;9.50;;;;;;;;;;4851501;29;20086;-90
2023/03/21 11:37:40;;;;;;;18.48;11.25;;;;;;;;;;4867025;29;20093;-89
2023/03/21 11:40:18;;;;;;;16.42;9.73;;;;;;;;;;4835817;29;20131;-88
2023/03/21 11:42:46;;;;;;;18.30;8.98;;;;;;;;;;4851035;29;20494;-89
2023/03/21 11:45:13;;;;;;;14.10;9.70;;;;;;;;;;4850759;29;20088;-89
2023/03/21 11:47:39;;;;;;;13.60;8.45;;;;;;;;;;4850443;29;20037;-88
2023/03/21 11:50:18;;;;;;;15.85;8.38;;;;;;;;;;4850826;29;20387;-89
2023/03/21 11:52:52;;;;;;;12.77;7.70;;;;;;;;;;4850119;29;20056;-87
2023/03/21 11:55:24;;;;;;;15.75;8.10;;;;;;;;;;4869916;29;20045;-88
2023/03/21 11:58:09;;;;;;;10.80;8.48;;;10.90;99.90;;;;;;4854517;29;20041;-87
2023/03/21 12:00:44;;;;;;;14.45;8.18;;;;;;;;;;4855084;29;20097;-88
2023/03/21 12:03:28;;;;;;;15.63;7.97;;;;;;;;;;4853709;29;20076;-89
2023/03/21 12:06:02;;;;;;;11.93;8.13;;;;;;;;;;4865430;29;20132;-89
2023/03/21 12:08:34;;;;;;;26.90;8.50;;;;;;;;;;4849648;29;20053;-88
2023/03/21 12:11:27;;;;;;;13.85;8.60;;;11.00;99.90;;;;;;4864650;29;20049;-88
2023/03/21 12:13:53;;;;;;;19.65;9.82;;;;;;;;;;4849802;29;20094;-88
2023/03/21 12:16:49;;;;;;;13.32;8.77;;;11.10;99.90;;;;;;4849550;29;20431;-87
2023/03/21 12:19:21;;;;;;;14.38;8.55;;;;;;;;;;4849345;29;20429;-87
2023/03/21 12:21:54;;;;;;;19.20;8.80;;;;;;;;;;4849006;29;20049;-88
2023/03/21 12:24:32;;;;;;;16.77;8.87;;;;;;;;;;4849174;29;20056;-88
2023/03/21 12:27:11;;;;;;;11.50;8.82;;;;;;;;;;4849083;29;20049;-88
2023/03/21 12:29:44;;;;;;;16.20;10.18;;;;;;;;;;4864565;29;20041;-88
2023/03/21 12:32:17;;;;;;;12.52;8.35;;;;;;;;;;4864310;29;20080;-87
2023/03/21 12:35:08;;;;;;;13.88;8.80;;;;;;;;;;4864283;29;20057;-88
2023/03/21 12:37:38;;;;;;;11.68;8.13;;;;;;;;;;4848924;29;20052;-88
2023/03/21 12:40:11;;;;;;;11.10;8.77;;;;;;;;;;4863958;29;20065;-88
2023/03/21 12:42:51;;;;;;;12.45;8.23;;;;;;;;;;4864486;29;20090;-88
2023/03/21 12:45:20;;;;;;;12.15;7.53;;;;;;;;;;4849037;29;20161;-87
2023/03/21 12:47:59;;;;;;;20.90;8.98;;;;;;;;;;4848509;29;20045;-88
2023/03/21 12:50:27;;;;;;;15.07;9.35;;;;;;;;;;4848889;29;20053;-88
2023/03/21 12:52:59;;;;;;;14.18;8.18;;;;;;;;;;4849036;29;20132;-87
2023/03/21 12:55:28;;;;;;;14.65;8.15;;;;;;;;;;4848758;29;20048;-88
2023/03/21 12:57:55;;;;;;;14.25;7.93;;;;;;;;;;4864107;29;20060;-87
2023/03/21 13:00:23;;;;;;;15.20;7.72;;;;;;;;;;4863789;29;20045;-87
2023/03/21 13:03:17;;;;;;;13.07;8.10;;;11.30;99.90;;;;;;4864237;29;20067;-87
2023/03/21 13:05:49;;;;;;;16.90;8.57;;;;;;;;;;4848210;29;20053;-88
2023/03/21 13:08:34;;;;;;;27.42;8.98;;;11.50;99.90;;;;;;4848949;29;20049;-87
2023/03/21 13:11:00;;;;;;;14.55;8.18;;;;;;;;;;4848539;29;20080;-87
2023/03/21 13:13:38;;;;;;;16.20;8.30;;;;;;;;;;4863852;29;20045;-87
2023/03/21 13:16:05;;;;;;;15.43;8.25;;;;;;;;;;4848410;29;20049;-87
2023/03/21 13:18:37;;;;;;;12.80;8.18;;;;;;;;;;4863443;29;20061;-88
2023/03/21 13:21:26;;;;;;;15.10;8.93;;;11.60;99.90;;;;;;4864034;29;20380;-87
2023/03/21 13:23:59;;;;;;;15.18;7.97;;;;;;;;;;4848389;29;20045;-87
2023/03/21 13:26:52;;;;;;;13.75;9.38;;;;;;;;;;4848299;29;20124;-87
2023/03/21 13:29:23;;;;;;;16.67;9.75;;;;;;;;;;4844245;29;20418;-87
2023/03/21 13:31:50;;;;;;;13.52;8.90;;;;;;;;;;4847998;29;20506;-88
2023/03/21 13:34:17;;;;;;;13.18;8.95;;;;;;;;;;4848387;29;20131;-87
2023/03/21 13:36:47;;;;;;;15.77;9.35;;;11.70;99.90;;;;;;4847910;29;20051;-88
2023/03/21 13:39:17;;;;;;;17.70;9.50;;;;;;;;;;4853659;29;20409;-87
2023/03/21 13:41:46;;;;;;;16.88;9.73;;;;;;;;;;4867057;29;20092;-89
2023/03/21 13:44:21;;;;;;;13.88;9.30;;;;;;;;;;4867642;29;20036;-88
2023/03/21 13:47:13;;;;;;;14.90;9.18;;;;;;;;;;4866913;29;20478;-88
2023/03/21 13:49:40;;;;;;;18.15;8.70;;;;;;;;;;4838683;29;20057;-88
2023/03/21 13:52:09;;;;;;;18.50;8.75;;;;;;;;;;4866023;29;20091;-88
2023/03/21 13:54:39;;;;;;;15.63;9.82;;;;;;;;;;4866428;29;20052;-89
2023/03/21 13:57:06;;;;;;;18.20;10.00;;;;;;;;;;4881737;29;20053;-88
2023/03/21 13:59:43;;;;;;;12.30;9.50;;;;;;;;;;4867218;29;20131;-89
2023/03/21 14:02:18;;;;;;;15.75;9.30;;;;;;;;;;4866269;29;20052;-89
2023/03/21 14:04:44;;;;;;;14.75;8.82;;;;;;;;;;4866435;29;20049;-88
2023/03/21 14:07:20;;;;;;;16.98;10.30;;;;;;;;;;4881402;29;20454;-87
2023/03/21 14:09:53;;;;;;;18.50;9.13;;;;;;;;;;4866056;29;20049;-88
2023/03/21 14:12:23;;;;;;;14.43;9.45;;;;;;;;;;4865757;29;20084;-88
2023/03/21 14:14:51;;;;;;;16.52;10.23;;;;;;;;;;4865944;29;20052;-90
2023/03/21 14:17:25;;;;;;;13.38;9.15;;;;;;;;;;4865925;29;20049;-89
2023/03/21 14:19:53;;;;;;;14.23;9.23;;;;;;;;;;4865920;29;20522;-90
2023/03/21 14:22:19;;;;;;;10.90;9.25;;;;;;;;;;4881676;29;20124;-88
2023/03/21 14:24:49;;;;;;;14.57;10.30;;;;;;;;;;4866236;29;20045;-89
2023/03/21 14:27:15;;;;;;;12.80;9.80;;;;;;;;;;4885057;29;20045;-89
2023/03/21 14:29:45;;;;;;;13.93;10.27;;;;;;;;;;4901830;29;20502;-89
2023/03/21 14:32:19;;;;;;;17.98;10.27;;;;;;;;;;4854731;29;20040;-89
2023/03/21 14:34:45;;;;;;;18.30;10.82;;;;;;;;;;4884942;29;20087;-90